Time;durP1;ratioP1;P1;durP2;ratioP2;P2;SDS_P1;SDS_P2;PMS_P1;PMS_P2;Temp;Humidity;BMP_temperature;BMP_pressure;BME280_temperature;BME280_humidity;BME280_pressure;Samples;Min_cycle;Max_cycle;Signal;HPM_P1;HPM_P2
2021/12/19 00:04:42;;;;;;;27.08;15.70;;;;;;;2.05;85.94;101285.03;4950922;28;20697;-84
2021/12/19 00:09:52;;;;;;;26.23;15.75;;;;;;;2.05;85.87;101278.13;4965508;28;20230;-84
2021/12/19 00:12:18;;;;;;;26.52;15.23;;;;;;;2.02;85.92;101285.91;4969214;28;20232;-85
2021/12/19 00:14:43;;;;;;;27.43;16.83;;;;;;;1.98;85.99;101285.06;4970759;28;20251;-82
2021/12/19 00:17:12;;;;;;;22.27;16.20;;;;;;;1.97;85.88;101296.28;4967172;28;20208;-84
2021/12/19 00:19:40;;;;;;;30.05;16.63;;;;;;;1.96;85.97;101281.59;4962931;28;20238;-85
2021/12/19 00:22:06;;;;;;;30.92;15.65;;;;;;;1.99;85.91;101283.31;4967214;28;20338;-85
2021/12/19 00:24:31;;;;;;;21.77;14.50;;;;;;;1.97;85.81;101274.66;4979521;28;20293;-84
2021/12/19 00:26:57;;;;;;;32.57;15.13;;;;;;;1.93;85.75;101286.78;4978722;28;20242;-85
2021/12/19 00:29:23;;;;;;;21.87;12.87;;;;;;;1.91;85.55;101282.47;4971611;28;20220;-84
2021/12/19 00:31:48;;;;;;;20.20;12.97;;;;;;;1.89;85.85;101287.66;4980346;28;20760;-84
2021/12/19 00:34:15;;;;;;;24.00;15.17;;;;;;;1.86;85.96;101287.66;4974472;28;20697;-84
2021/12/19 00:36:42;;;;;;;22.50;15.00;;;;;;;1.88;86.20;101279.88;4975257;28;20271;-84
2021/12/19 00:39:11;;;;;;;24.35;16.40;;;;;;;1.90;86.22;101275.56;4967624;28;20291;-84
2021/12/19 00:41:36;;;;;;;21.75;14.80;;;;;;;1.90;86.26;101289.38;4974003;28;20243;-84
2021/12/19 00:44:10;;;;;;;22.80;13.60;;;;;;;1.88;86.03;101292.84;4975170;28;20278;-84
2021/12/19 00:47:07;;;;;;;23.58;15.95;;;;;;;1.90;86.15;101291.13;4967526;28;20211;-85
2021/12/19 00:49:30;;;;;;;25.77;14.52;;;;;;;1.90;86.23;101286.78;4973360;28;20243;-85
2021/12/19 00:51:55;;;;;;;22.23;14.52;;;;;;;1.93;85.93;101289.38;4965086;28;20215;-84
2021/12/19 00:54:21;;;;;;;23.13;13.83;;;;;;;1.93;86.27;101284.19;4976069;28;20576;-83
2021/12/19 00:56:48;;;;;;;28.43;14.67;;;;;;;1.93;85.90;101279.00;4975646;28;20269;-84
2021/12/19 00:59:14;;;;;;;23.20;13.30;;;;;;;1.92;86.06;101277.28;4972744;28;20215;-84
2021/12/19 01:01:40;;;;;;;27.58;18.13;;;;;;;1.98;85.86;101282.47;4973564;28;20494;-84
2021/12/19 01:04:11;;;;;;;28.23;17.10;;;;;;;1.95;85.90;101290.25;4967338;28;20387;-83
2021/12/19 01:06:41;;;;;;;23.50;14.70;;;;;;;1.94;85.86;101290.22;4974820;28;20227;-83
2021/12/19 01:09:08;;;;;;;33.38;17.30;;;;;;;1.92;86.12;101290.25;4970804;28;20228;-84
2021/12/19 01:11:35;;;;;;;29.00;15.23;;;;;;;1.90;85.77;101289.38;4972201;28;20216;-85
2021/12/19 01:14:01;;;;;;;31.23;15.98;;;;;;;1.88;86.10;101287.66;4974000;28;20313;-84
2021/12/19 01:16:27;;;;;;;20.45;15.02;;;;;;;1.87;86.11;101289.38;4967102;28;20204;-85
2021/12/19 01:18:53;;;;;;;22.70;15.60;;;;;;;1.86;86.31;101291.97;4964500;28;20275;-83
2021/12/19 01:21:18;;;;;;;21.27;15.03;;;;;;;1.84;86.14;101294.56;4971695;28;20236;-83
2021/12/19 01:23:44;;;;;;;26.37;15.87;;;;;;;1.81;86.30;101283.34;4972049;28;20258;-84
2021/12/19 01:26:10;;;;;;;48.33;22.25;;;;;;;1.81;86.29;101272.97;4972831;28;20898;-84
2021/12/19 01:28:36;;;;;;;27.40;17.50;;;;;;;1.83;86.31;101279.88;4971408;28;20247;-85
2021/12/19 01:31:02;;;;;;;29.27;16.17;;;;;;;1.87;86.34;101284.22;4970896;28;20574;-85
2021/12/19 01:33:28;;;;;;;21.17;14.82;;;;;;;1.90;85.85;101284.19;4974136;28;20510;-83
2021/12/19 01:35:54;;;;;;;26.63;13.88;;;;;;;1.92;85.79;101279.88;4975978;28;20219;-83
2021/12/19 01:38:20;;;;;;;25.20;13.77;;;;;;;1.91;85.74;101270.38;4981232;28;20211;-84
2021/12/19 01:40:45;;;;;;;27.53;15.00;;;;;;;1.90;85.79;101262.63;4976891;28;20922;-84
2021/12/19 01:43:11;;;;;;;25.07;15.00;;;;;;;1.91;85.76;101269.50;4970621;28;20231;-84
2021/12/19 01:45:39;;;;;;;25.20;13.00;;;;;;;1.92;85.77;101260.88;4972185;28;20231;-84
2021/12/19 01:48:11;;;;;;;22.15;13.50;;;;;;;1.92;86.01;101269.53;4973783;28;20216;-84
2021/12/19 01:50:38;;;;;;;23.25;14.90;;;;;;;1.91;85.55;101269.50;4975231;28;20397;-83
2021/12/19 01:53:06;;;;;;;18.70;12.40;;;;;;;1.86;86.04;101260.88;4973695;28;20211;-84
2021/12/19 01:55:32;;;;;;;22.10;14.82;;;;;;;1.83;85.79;101261.75;4973694;28;20788;-84
2021/12/19 01:57:59;;;;;;;24.67;13.75;;;;;;;1.84;86.11;101268.66;4953736;28;20231;-84
2021/12/19 02:00:40;;;;;;;22.05;14.93;;;;;;;1.83;85.78;101263.47;4975198;28;20219;-84
2021/12/19 02:03:07;;;;;;;23.75;14.68;;;;;;;1.84;86.03;101255.72;4977890;28;20235;-84
2021/12/19 02:05:33;;;;;;;30.30;15.27;;;;;;;1.85;85.88;101249.66;4974278;28;20255;-82
2021/12/19 02:07:59;;;;;;;23.27;15.10;;;;;;;1.86;85.99;101248.78;4973552;28;20224;-84
2021/12/19 02:10:27;;;;;;;26.55;14.13;;;;;;;1.87;85.82;101254.84;4973057;28;20224;-84
2021/12/19 02:12:54;;;;;;;21.67;15.00;;;;;;;1.83;86.08;101246.19;4972572;28;20223;-84
2021/12/19 02:15:22;;;;;;;21.90;14.20;;;;;;;1.80;85.74;101248.78;4978656;28;20254;-84
2021/12/19 02:17:50;;;;;;;24.27;14.13;;;;;;;1.78;85.94;101247.94;4962174;28;21106;-84
2021/12/19 02:20:17;;;;;;;21.73;14.07;;;;;;;1.75;86.25;101247.94;4972554;28;20686;-84
2021/12/19 02:22:43;;;;;;;23.38;15.23;;;;;;;1.72;86.09;101243.63;4970954;28;20208;-83
2021/12/19 02:25:10;;;;;;;26.30;14.07;;;;;;;1.70;86.22;101249.66;4974444;28;20218;-85
2021/12/19 02:27:35;;;;;;;23.00;14.20;;;;;;;1.68;86.09;101247.09;4970786;28;20242;-84
2021/12/19 02:30:03;;;;;;;23.47;15.17;;;;;;;1.67;86.39;101237.56;4969305;28;20220;-84
2021/12/19 02:32:30;;;;;;;16.98;12.07;;;;;;;1.68;86.40;101236.72;4967887;28;20607;-84
2021/12/19 02:34:59;;;;;;;27.50;14.30;;;;;;;1.67;86.39;101239.31;4960124;28;20675;-84
2021/12/19 02:48:14;;;;;;;20.05;13.32;;;;;;;1.62;86.45;101226.38;4970520;28;20235;-84
2021/12/19 02:50:48;;;;;;;20.30;13.80;;;;;;;1.62;86.47;101225.50;4970802;28;20204;-84
2021/12/19 02:53:17;;;;;;;25.30;15.75;;;;;;;1.62;86.65;101228.09;4975926;28;20223;-84
2021/12/19 02:55:43;;;;;;;22.25;14.00;;;;;;;1.59;86.53;101220.31;4977438;28;20715;-84
2021/12/19 02:58:10;;;;;;;23.93;14.90;;;;;;;1.59;86.67;101221.19;4989259;28;20211;-84
2021/12/19 03:00:36;;;;;;;24.00;13.55;;;;;;;1.59;86.49;101215.16;4997468;28;20502;-84
2021/12/19 03:03:02;;;;;;;21.77;14.57;;;;;;;1.59;86.65;101223.78;4983452;28;20792;-85
2021/12/19 03:05:30;;;;;;;20.87;13.73;;;;;;;1.59;86.55;101220.31;4997224;28;20233;-84
2021/12/19 03:07:56;;;;;;;24.00;14.98;;;;;;;1.57;86.66;101220.34;5000406;28;20243;-84
2021/12/19 03:13:26;;;;;;;21.55;13.10;;;;;;;1.54;86.99;101216.03;4965229;28;20216;-84
2021/12/19 03:18:38;;;;;;;24.80;13.80;;;;;;;1.45;86.88;101228.97;4965989;28;20210;-84
2021/12/19 03:21:04;;;;;;;25.92;13.00;;;;;;;1.41;87.29;101222.06;4972598;28;20211;-84
2021/12/19 03:23:29;;;;;;;22.37;14.20;;;;;;;1.41;87.24;101218.63;4968069;28;20590;-85
2021/12/19 03:25:55;;;;;;;20.60;12.93;;;;;;;1.41;87.63;101216.03;4972055;28;20484;-84
2021/12/19 03:28:20;;;;;;;27.40;13.70;;;;;;;1.41;87.49;101216.91;4966859;28;20291;-84
2021/12/19 03:30:48;;;;;;;23.67;13.77;;;;;;;1.44;87.26;101216.88;4969808;28;20207;-84
2021/12/19 03:33:14;;;;;;;18.95;11.68;;;;;;;1.46;87.30;101219.47;4972444;28;20301;-84
2021/12/19 03:35:40;;;;;;;24.70;12.55;;;;;;;1.47;87.13;101216.88;4979392;28;20235;-84
2021/12/19 03:38:09;;;;;;;18.33;12.27;;;;;;;1.49;87.39;101220.34;4973623;28;20223;-84
2021/12/19 03:40:37;;;;;;;23.05;12.50;;;;;;;1.53;87.47;101213.44;4975509;28;20930;-84
2021/12/19 03:43:08;;;;;;;19.45;11.27;;;;;;;1.57;87.19;101216.88;4964125;28;20212;-84
2021/12/19 03:45:35;;;;;;;24.38;13.80;;;;;;;1.59;87.14;101213.41;4970171;28;20216;-84
2021/12/19 03:48:04;;;;;;;19.70;12.00;;;;;;;1.57;87.09;101207.41;4975855;28;20531;-84
2021/12/19 03:50:32;;;;;;;23.13;12.70;;;;;;;1.58;87.14;101211.69;4968514;28;20319;-84
2021/12/19 03:52:59;;;;;;;16.73;11.93;;;;;;;1.55;87.12;101204.78;4966608;28;20830;-84
2021/12/19 03:55:25;;;;;;;17.75;12.40;;;;;;;1.53;86.81;101206.50;4969518;28;20566;-84
2021/12/19 03:57:51;;;;;;;24.60;15.10;;;;;;;1.52;87.04;101193.59;4970713;28;20246;-84
2021/12/19 04:00:23;;;;;;;19.17;11.77;;;;;;;1.52;87.26;101194.44;4978276;28;20595;-85
2021/12/19 04:02:53;;;;;;;21.52;13.48;;;;;;;1.51;87.35;101195.31;4968434;28;20461;-84
2021/12/19 04:05:18;;;;;;;20.38;12.85;;;;;;;1.50;87.13;101196.16;4963367;28;20208;-84
2021/12/19 04:07:44;;;;;;;20.30;12.13;;;;;;;1.50;87.12;101184.94;4965654;28;20238;-84
2021/12/19 04:10:09;;;;;;;22.30;11.37;;;;;;;1.49;87.14;101188.41;4968512;28;20326;-84
2021/12/19 04:12:35;;;;;;;22.07;12.23;;;;;;;1.48;87.23;101187.53;4966193;28;20299;-85
2021/12/19 04:15:00;;;;;;;24.17;13.57;;;;;;;1.46;87.05;101186.69;4960758;28;20286;-84
2021/12/19 04:17:26;;;;;;;21.67;11.60;;;;;;;1.45;86.85;101187.53;4954366;28;20592;-84
2021/12/19 04:19:51;;;;;;;20.83;10.73;;;;;;;1.42;86.93;101184.94;4945039;28;20262;-84
2021/12/19 04:22:17;;;;;;;24.47;12.13;;;;;;;1.40;86.87;101181.50;4948096;28;20223;-84
2021/12/19 04:24:45;;;;;;;22.73;11.90;;;;;;;1.36;86.98;101179.78;4946379;28;20205;-84
2021/12/19 04:27:10;;;;;;;23.80;11.43;;;;;;;1.32;87.12;101186.69;4945549;28;20220;-83
2021/12/19 04:29:36;;;;;;;18.00;11.20;;;;;;;1.26;87.26;101181.50;4954173;28;20635;-84
2021/12/19 04:32:01;;;;;;;19.80;12.70;;;;;;;1.22;87.05;101173.75;4942712;28;20200;-84
2021/12/19 04:34:27;;;;;;;18.90;10.77;;;;;;;1.20;87.25;101175.47;4949307;28;20215;-84
2021/12/19 04:36:59;;;;;;;18.50;11.67;;;;;;;1.18;87.47;101179.78;4944617;28;20623;-84
2021/12/19 04:50:54;;;;;;;14.65;8.73;;;;;;;1.07;87.49;101175.47;4950497;28;20207;-84
2021/12/19 05:00:54;;;;;;;19.23;10.15;;;;;;;0.91;88.29;101175.47;4947094;28;20405;-84
2021/12/19 05:03:47;;;;;;;14.00;8.95;;;;;;;0.91;88.04;101165.97;4942797;28;20291;-84
2021/12/19 05:06:34;;;;;;;14.13;9.90;;;;;;;0.93;88.41;101163.38;4949129;28;20224;-84
2021/12/19 05:14:34;;;;;;;21.45;11.48;;;;;;;1.01;88.40;101165.13;4956187;28;20908;-84
2021/12/19 05:17:05;;;;;;;18.10;9.68;;;;;;;1.02;88.10;101160.81;4948897;28;20551;-83
2021/12/19 05:19:44;;;;;;;15.07;11.00;;;;;;;1.05;88.17;101155.63;4948196;28;20228;-82
2021/12/19 05:22:10;;;;;;;23.63;12.52;;;;;;;1.08;88.12;101159.09;4933678;28;20211;-83
2021/12/19 05:24:49;;;;;;;20.63;11.70;;;;;;;1.10;88.01;101154.75;4942584;28;20216;-83
2021/12/19 05:27:15;;;;;;;18.83;11.70;;;;;;;1.16;87.97;101155.63;4952360;28;20468;-83
2021/12/19 05:29:40;;;;;;;25.20;12.60;;;;;;;1.18;87.93;101159.06;4949802;28;20248;-83
2021/12/19 05:32:08;;;;;;;18.30;10.83;;;;;;;1.16;87.98;101161.69;4955765;28;20674;-83
2021/12/19 05:34:34;;;;;;;17.45;11.38;;;;;;;1.15;87.79;101165.13;4945857;28;20248;-83
2021/12/19 05:45:15;;;;;;;21.88;12.68;;;;;;;1.14;87.83;101155.63;4951115;28;20227;-83
2021/12/19 05:47:43;;;;;;;19.73;11.88;;;;;;;1.14;87.90;101155.63;4948928;28;20283;-83
2021/12/19 05:50:09;;;;;;;20.75;12.85;;;;;;;1.15;87.82;101153.91;4952483;28;20228;-83
2021/12/19 05:52:35;;;;;;;18.08;10.48;;;;;;;1.16;88.10;101148.75;4952162;28;20272;-83
2021/12/19 05:55:00;;;;;;;25.37;13.53;;;;;;;1.18;87.97;101141.81;4945649;28;20219;-83
2021/12/19 05:57:26;;;;;;;18.50;11.40;;;;;;;1.20;87.82;101134.06;4947892;28;20237;-84
2021/12/19 05:59:51;;;;;;;19.13;13.13;;;;;;;1.17;87.93;101129.75;4950030;28;20205;-83
2021/12/19 06:02:20;;;;;;;20.37;14.07;;;;;;;1.18;87.96;101133.19;4944016;28;20246;-83
2021/12/19 06:04:45;;;;;;;23.55;12.93;;;;;;;1.18;88.19;101121.13;4951800;28;20220;-83
2021/12/19 06:07:11;;;;;;;25.80;12.33;;;;;;;1.19;87.93;101127.16;4945843;28;20235;-84
2021/12/19 06:09:36;;;;;;;21.40;12.73;;;;;;;1.17;88.12;101118.53;4949137;28;20805;-83
2021/12/19 06:12:03;;;;;;;18.07;10.80;;;;;;;1.17;88.01;101113.38;4945600;28;20232;-83
2021/12/19 06:14:32;;;;;;;17.60;11.38;;;;;;;1.14;88.09;101113.38;4947980;28;20240;-83
2021/12/19 06:16:59;;;;;;;23.25;13.23;;;;;;;1.12;88.11;101109.91;4951380;28;20216;-82
2021/12/19 06:19:25;;;;;;;19.90;12.05;;;;;;;1.11;88.08;101111.66;4954851;28;20204;-82
2021/12/19 06:21:50;;;;;;;17.13;11.90;;;;;;;1.12;88.28;101115.09;4951442;28;20221;-82
2021/12/19 06:24:16;;;;;;;22.77;10.80;;;;;;;1.10;88.08;101117.66;4944439;28;20791;-83
2021/12/19 06:26:42;;;;;;;17.30;10.23;;;;;;;1.09;88.16;101115.97;4959778;28;20270;-81
2021/12/19 06:29:07;;;;;;;16.43;10.83;;;;;;;1.07;88.14;101125.44;4952064;28;20221;-83
2021/12/19 06:31:32;;;;;;;19.37;9.50;;;;;;;1.05;88.38;101117.69;4948802;28;20239;-82
2021/12/19 06:33:58;;;;;;;15.07;9.50;;;;;;;1.06;87.98;101116.81;4947737;28;20236;-82
2021/12/19 06:36:24;;;;;;;19.23;10.03;;;;;;;1.07;88.28;101110.78;4947686;28;20655;-82
2021/12/19 06:38:49;;;;;;;14.00;9.47;;;;;;;1.09;88.04;101111.63;4956985;28;20221;-81
2021/12/19 06:41:15;;;;;;;13.67;7.40;;;;;;;1.12;88.03;101104.75;4951733;28;20632;-82
2021/12/19 06:43:41;;;;;;;17.93;9.37;;;;;;;1.12;88.18;101112.50;4949352;28;20468;-82
2021/12/19 06:46:06;;;;;;;12.87;8.00;;;;;;;1.12;88.17;101105.59;4950251;28;20220;-82
2021/12/19 06:48:32;;;;;;;18.70;9.30;;;;;;;1.14;88.09;101108.19;4951131;28;20657;-82
2021/12/19 06:50:57;;;;;;;13.90;8.67;;;;;;;1.16;87.97;101101.28;4953832;28;20468;-82
2021/12/19 06:53:23;;;;;;;17.83;10.03;;;;;;;1.13;87.73;101096.97;4951383;28;20213;-81
2021/12/19 06:55:49;;;;;;;14.23;8.87;;;;;;;1.10;87.77;101100.41;4953361;28;20224;-81
2021/12/19 06:58:14;;;;;;;19.83;10.30;;;;;;;1.07;87.85;101103.00;4954194;28;20243;-82
2021/12/19 07:00:40;;;;;;;12.00;8.87;;;;;;;1.06;87.92;101100.44;4953035;28;20208;-82
2021/12/19 07:03:06;;;;;;;18.33;8.60;;;;;;;1.05;87.99;101098.69;4951110;28;20208;-82
2021/12/19 07:05:31;;;;;;;13.40;8.13;;;;;;;1.06;88.28;101101.28;4947964;28;20575;-81
2021/12/19 07:07:57;;;;;;;14.40;9.13;;;;;;;1.06;88.20;101096.13;4968352;28;20216;-82
2021/12/19 07:10:22;;;;;;;14.10;9.33;;;;;;;1.07;87.88;101097.84;4959175;28;20267;-81
2021/12/19 07:12:48;;;;;;;11.83;7.30;;;;;;;1.08;87.80;101094.41;4958912;28;20216;-82
2021/12/19 07:15:14;;;;;;;13.80;8.03;;;;;;;1.11;87.92;101093.53;4962789;28;20343;-82
2021/12/19 07:17:40;;;;;;;13.95;8.50;;;;;;;1.13;87.72;101098.69;4961284;28;20643;-82
2021/12/19 07:20:07;;;;;;;12.73;6.97;;;;;;;1.13;87.86;101090.94;4971639;28;20224;-82
2021/12/19 07:22:32;;;;;;;12.15;7.25;;;;;;;1.13;87.78;101090.94;4946206;28;20208;-82
2021/12/19 07:25:03;;;;;;;10.37;5.73;;;;;;;1.11;87.38;101088.34;4952492;28;20668;-82
2021/12/19 07:27:28;;;;;;;11.50;7.05;;;;;;;1.10;87.28;101092.66;4957946;28;20243;-84
2021/12/19 07:29:56;;;;;;;12.70;7.20;;;;;;;1.10;87.40;101084.88;4953379;28;20271;-82
2021/12/19 07:32:23;;;;;;;10.25;5.55;;;;;;;1.11;87.40;101093.53;4952218;28;20219;-82
2021/12/19 07:34:49;;;;;;;14.70;6.70;;;;;;;1.14;87.28;101087.50;4945967;28;20694;-82
2021/12/19 07:37:15;;;;;;;14.48;7.00;;;;;;;1.17;87.22;101084.91;4950948;28;20220;-81
2021/12/19 07:39:52;;;;;;;14.57;7.97;;;;;;;1.15;86.94;101082.31;4932733;28;20208;-81
2021/12/19 07:42:18;;;;;;;15.68;7.65;;;;;;;1.11;86.95;101085.78;4948922;28;20222;-81
2021/12/19 07:44:43;;;;;;;9.53;6.60;;;;;;;1.11;86.96;101078.00;4949107;28;20484;-81
2021/12/19 07:47:10;;;;;;;9.97;6.80;;;;;;;1.15;87.06;101082.31;4946061;28;21082;-82
2021/12/19 07:49:38;;;;;;;14.95;8.40;;;;;;;1.15;87.03;101090.06;4952246;28;20252;-81
2021/12/19 07:52:04;;;;;;;9.57;6.28;;;;;;;1.17;86.95;101087.50;4946811;28;20208;-82
2021/12/19 07:54:30;;;;;;;10.65;6.38;;;;;;;1.19;86.85;101084.03;4945294;28;20215;-82
2021/12/19 07:56:55;;;;;;;10.90;7.47;;;;;;;1.21;86.75;101073.66;4947577;28;20231;-81
2021/12/19 07:59:21;;;;;;;9.87;6.80;;;;;;;1.22;86.93;101073.69;4946990;28;20312;-82
2021/12/19 08:01:48;;;;;;;13.13;7.40;;;;;;;1.23;86.85;101070.22;4951369;28;20474;-82
2021/12/19 08:04:13;;;;;;;14.23;7.45;;;;;;;1.22;86.59;101062.47;4947196;28;20337;-83
2021/12/19 08:06:39;;;;;;;12.47;7.43;;;;;;;1.20;86.54;101061.59;4935615;28;20387;-82
2021/12/19 08:09:09;;;;;;;9.23;6.93;;;;;;;1.20;86.80;101072.81;4945734;28;20279;-82
2021/12/19 08:11:40;;;;;;;12.63;8.52;;;;;;;1.21;86.79;101071.06;4948864;28;20220;-83
2021/12/19 08:14:12;;;;;;;14.35;8.32;;;;;;;1.23;86.64;101069.34;4946780;28;20248;-83
2021/12/19 08:16:39;;;;;;;10.15;7.63;;;;;;;1.25;86.34;101070.22;4951228;28;20587;-82
2021/12/19 08:19:05;;;;;;;11.35;7.32;;;;;;;1.27;86.44;101064.19;4946254;28;20611;-82
2021/12/19 08:21:31;;;;;;;9.67;6.70;;;;;;;1.29;86.38;101058.97;4928133;28;20213;-83
2021/12/19 08:24:02;;;;;;;14.57;7.68;;;;;;;1.27;86.29;101053.81;4951427;28;20210;-82
2021/12/19 08:26:29;;;;;;;13.02;7.20;;;;;;;1.26;86.38;101061.56;4950268;28;20219;-83
2021/12/19 08:28:55;;;;;;;9.88;6.57;;;;;;;1.24;86.43;101064.19;4948121;28;20323;-83
2021/12/19 08:31:20;;;;;;;11.23;8.00;;;;;;;1.25;86.25;101059.88;4954633;28;20224;-82
2021/12/19 08:33:47;;;;;;;15.57;7.40;;;;;;;1.25;86.24;101059.88;4954174;28;20232;-83
2021/12/19 08:36:13;;;;;;;10.52;6.75;;;;;;;1.25;86.11;101065.91;4935308;28;20355;-83
2021/12/19 08:38:38;;;;;;;13.30;7.50;;;;;;;1.25;86.19;101065.03;4955112;28;20294;-83
2021/12/19 08:41:04;;;;;;;14.37;8.70;;;;;;;1.24;85.93;101073.66;4977306;28;20223;-83
2021/12/19 08:43:30;;;;;;;12.00;8.03;;;;;;;1.25;86.03;101062.44;4973365;28;20700;-82
2021/12/19 08:45:56;;;;;;;12.83;8.00;;;;;;;1.25;85.77;101059.88;4969258;28;20219;-83
2021/12/19 08:48:21;;;;;;;13.20;7.45;;;;;;;1.24;85.80;101066.78;4968840;28;20827;-82
2021/12/19 08:50:48;;;;;;;14.07;8.47;;;;;;;1.25;85.81;101063.31;4970107;28;20278;-82
2021/12/19 08:53:13;;;;;;;13.63;8.95;;;;;;;1.24;85.90;101056.41;4952970;28;20468;-83
2021/12/19 08:55:39;;;;;;;13.37;9.53;;;;;;;1.24;85.79;101050.34;4969448;28;20259;-82
2021/12/19 08:58:05;;;;;;;10.57;7.38;;;;;;;1.25;85.79;101058.13;4969788;28;20207;-82
2021/12/19 09:00:34;;;;;;;13.00;9.40;;;;;;;1.24;85.82;101050.34;4974678;28;20446;-82
2021/12/19 09:03:00;;;;;;;13.27;8.55;;;;;;;1.23;85.50;101056.41;4971863;28;20212;-82
2021/12/19 09:05:28;;;;;;;14.90;8.75;;;;;;;1.19;85.44;101057.25;4967121;28;20212;-83
2021/12/19 09:07:54;;;;;;;14.65;9.25;;;;;;;1.16;85.36;101055.56;4970884;28;20291;-83
2021/12/19 09:10:21;;;;;;;15.25;10.10;;;;;;;1.18;85.31;101063.31;4971422;28;20228;-84
2021/12/19 09:12:47;;;;;;;13.40;9.60;;;;;;;1.16;85.28;101052.09;4969012;28;20347;-83
2021/12/19 09:15:13;;;;;;;19.98;11.30;;;;;;;1.16;85.35;101054.69;4967152;28;20607;-83
2021/12/19 09:17:39;;;;;;;22.13;14.60;;;;;;;1.16;85.61;101050.41;4970324;28;20214;-82
2021/12/19 09:20:07;;;;;;;12.87;9.73;;;;;;;1.21;85.38;101052.97;4971218;28;20216;-82
2021/12/19 09:22:32;;;;;;;11.90;9.30;;;;;;;1.24;85.24;101048.66;4969883;28;20263;-83
2021/12/19 09:24:58;;;;;;;11.50;8.80;;;;;;;1.27;85.42;101046.06;4972646;28;20204;-82
2021/12/19 09:27:23;;;;;;;20.83;10.30;;;;;;;1.29;85.08;101051.22;4972517;28;20211;-83
2021/12/19 09:29:49;;;;;;;13.57;10.80;;;;;;;1.29;85.13;101056.38;4979010;28;21170;-83
2021/12/19 09:32:14;;;;;;;18.90;13.20;;;;;;;1.44;84.89;101052.91;4977255;28;20473;-83
2021/12/19 09:34:41;;;;;;;16.37;9.87;;;;;;;1.42;84.59;101050.31;4991368;28;20243;-83
2021/12/19 09:37:06;;;;;;;13.70;10.40;;;;;;;1.40;84.87;101052.03;4987759;28;20216;-83
2021/12/19 09:39:32;;;;;;;15.67;9.20;;;;;;;1.39;84.57;101052.91;4977949;28;20211;-84
2021/12/19 09:42:06;;;;;;;13.98;9.75;;;;;;;1.38;84.40;101051.22;4974090;28;20388;-82
2021/12/19 09:44:33;;;;;;;15.23;9.30;;;;;;;1.35;84.29;101059.00;4972479;28;20249;-83
2021/12/19 09:46:59;;;;;;;14.93;9.20;;;;;;;1.36;84.68;101057.25;4971709;28;20342;-83
2021/12/19 09:49:24;;;;;;;13.13;8.43;;;;;;;1.36;84.44;101052.94;4972828;28;20772;-84
2021/12/19 09:51:51;;;;;;;14.80;9.53;;;;;;;1.40;84.28;101046.00;4970681;28;20512;-84
2021/12/19 09:54:18;;;;;;;11.15;9.38;;;;;;;1.41;84.27;101029.63;4972378;28;20212;-83
2021/12/19 09:56:46;;;;;;;15.13;11.05;;;;;;;1.42;84.39;101026.16;4972028;28;20219;-82
2021/12/19 09:59:14;;;;;;;12.98;9.30;;;;;;;1.42;83.93;101026.16;4961421;28;20223;-83
2021/12/19 10:01:40;;;;;;;16.00;11.93;;;;;;;1.46;84.25;101023.56;4970476;28;20985;-83
2021/12/19 10:04:38;;;;;;;14.05;10.77;;;;;;;1.46;84.26;101004.56;4971059;28;20283;-82
2021/12/19 10:07:09;;;;;;;15.45;11.45;;;;;;;1.48;84.02;100997.66;4970913;28;20251;-83
2021/12/19 10:09:38;;;;;;;14.50;10.45;;;;;;;1.49;83.80;101010.59;4969191;28;20232;-82
2021/12/19 10:14:53;;;;;;;15.98;10.38;;;;;;;1.35;83.46;101007.22;4971890;28;20737;-83
2021/12/19 10:17:19;;;;;;;15.00;9.30;;;;;;;1.34;83.37;101010.66;4962247;28;20211;-83
2021/12/19 10:19:50;;;;;;;16.95;10.45;;;;;;;1.30;83.43;101008.94;4974480;28;20198;-83
2021/12/19 10:22:27;;;;;;;16.65;10.50;;;;;;;1.30;83.43;101002.03;4971377;28;20226;-84
2021/12/19 10:24:55;;;;;;;18.42;11.68;;;;;;;1.29;83.38;100995.13;4970333;28;20212;-82
2021/12/19 10:27:31;;;;;;;17.95;11.98;;;;;;;1.28;83.46;100983.06;4970441;28;20206;-82
2021/12/19 10:29:58;;;;;;;20.92;10.65;;;;;;;1.32;83.58;100978.72;4973672;28;20224;-82
2021/12/19 10:32:23;;;;;;;18.02;12.75;;;;;;;1.38;83.46;100965.78;4970939;28;20624;-83
2021/12/19 10:34:49;;;;;;;17.23;11.83;;;;;;;1.37;83.62;100965.75;4970878;28;20311;-83
2021/12/19 10:37:34;;;;;;;15.07;11.00;;;;;;;1.39;83.35;100966.63;4952926;28;20347;-83
2021/12/19 10:40:02;;;;;;;17.58;13.02;;;;;;;1.39;83.57;100962.31;4954110;28;20218;-83
2021/12/19 10:42:33;;;;;;;25.95;16.65;;;;;;;1.41;83.54;100951.97;4960234;28;20666;-83
2021/12/19 10:47:43;;;;;;;23.83;15.00;;;;;;;1.49;83.45;100961.41;4972774;28;20235;-82
2021/12/19 10:50:08;;;;;;;18.33;11.03;;;;;;;1.49;83.34;100951.03;4974081;28;20270;-83
2021/12/19 10:52:39;;;;;;;15.57;10.77;;;;;;;1.51;83.11;100958.78;4972419;28;20262;-82
2021/12/19 10:55:10;;;;;;;18.17;12.27;;;;;;;1.51;83.16;100954.50;4964702;28;20776;-82
2021/12/19 10:57:38;;;;;;;22.38;13.80;;;;;;;1.49;82.78;100945.00;4976024;28;20465;-82
2021/12/19 11:00:08;;;;;;;14.48;11.52;;;;;;;1.49;83.05;100943.28;4977133;28;20192;-83
2021/12/19 11:02:35;;;;;;;30.50;18.58;;;;;;;1.44;83.14;100945.03;4973364;28;20207;-84
2021/12/19 11:05:01;;;;;;;19.90;14.02;;;;;;;1.43;83.07;100939.84;4973736;28;20239;-82
2021/12/19 11:07:27;;;;;;;14.90;10.03;;;;;;;1.34;82.82;100930.41;4974397;28;20322;-84
2021/12/19 11:09:52;;;;;;;19.95;11.55;;;;;;;1.26;83.16;100929.56;4974492;28;20686;-83
2021/12/19 11:12:18;;;;;;;21.20;9.50;;;;;;;1.17;83.33;100927.03;4975300;28;20269;-83
2021/12/19 11:14:47;;;;;;;17.90;12.00;;;;;;;1.10;83.64;100915.81;4990321;28;20255;-83
2021/12/19 11:17:22;;;;;;;22.35;12.68;;;;;;;1.08;83.69;100913.25;4995250;28;20287;-86
2021/12/19 11:19:49;;;;;;;17.65;10.80;;;;;;;1.07;83.89;100910.66;4968941;28;20293;-83
2021/12/19 11:22:23;;;;;;;19.13;11.23;;;;;;;1.06;83.97;100899.47;4984854;28;20208;-83
2021/12/19 11:24:56;;;;;;;18.70;11.60;;;;;;;1.08;84.04;100899.44;4976220;28;20660;-84
2021/12/19 11:27:23;;;;;;;15.95;12.23;;;;;;;1.11;84.02;100894.28;4972409;28;20242;-83
2021/12/19 11:29:54;;;;;;;17.35;11.20;;;;;;;1.14;83.96;100889.09;4970612;28;20498;-82
2021/12/19 11:32:31;;;;;;;20.63;14.20;;;;;;;1.29;83.90;100890.72;4957761;28;20773;-84
2021/12/19 11:35:13;;;;;;;18.08;11.40;;;;;;;1.28;83.92;100882.09;4969487;28;20215;-84
2021/12/19 11:37:43;;;;;;;17.92;10.80;;;;;;;1.28;83.78;100883.84;4970068;28;20222;-83
2021/12/19 11:40:20;;;;;;;19.08;11.43;;;;;;;1.29;83.57;100867.44;4969479;28;20219;-82
2021/12/19 11:42:46;;;;;;;19.08;11.32;;;;;;;1.25;83.66;100870.91;4922600;28;20247;-83
2021/12/19 11:47:55;;;;;;;18.00;10.15;;;;;;;1.14;83.76;100864.94;4932427;29;20243;-82
2021/12/19 11:50:25;;;;;;;17.45;9.57;;;;;;;1.02;83.69;100866.69;4935700;29;20320;-83
2021/12/19 11:53:11;;;;;;;19.50;11.00;;;;;;;0.91;83.78;100865.03;4932798;28;20268;-83
2021/12/19 11:55:39;;;;;;;17.40;11.70;;;;;;;0.77;84.18;100854.75;4914927;29;20269;-83
2021/12/19 11:58:08;;;;;;;13.43;8.57;;;;;;;0.75;84.52;100843.53;4929126;28;20214;-84
2021/12/19 12:00:43;;;;;;;19.45;11.45;;;;;;;0.72;84.51;100838.38;4928053;28;20926;-83
2021/12/19 12:03:11;;;;;;;20.00;11.15;;;;;;;0.70;84.49;100833.19;4914766;28;20204;-82
2021/12/19 12:05:42;;;;;;;17.83;11.85;;;;;;;0.71;84.70;100834.09;4925791;28;20707;-83
2021/12/19 12:08:08;;;;;;;17.55;11.75;;;;;;;0.74;84.61;100827.16;4929497;28;20260;-84
2021/12/19 12:10:55;;;;;;;19.90;11.77;;;;;;;0.73;84.80;100832.31;4929391;28;20502;-82
2021/12/19 12:13:32;;;;;;;20.92;12.52;;;;;;;0.75;84.56;100820.25;4926695;29;20245;-83
2021/12/19 12:18:41;;;;;;;16.58;11.45;;;;;;;0.82;84.51;100817.66;4932309;29;20227;-84
2021/12/19 12:21:25;;;;;;;15.38;10.35;;;;;;;0.83;84.60;100809.00;4929676;28;20208;-83
2021/12/19 12:23:58;;;;;;;17.77;11.60;;;;;;;0.85;84.59;100807.28;4935290;29;20224;-83
2021/12/19 12:26:30;;;;;;;15.40;9.90;;;;;;;0.89;84.44;100800.34;4936106;29;20344;-83
2021/12/19 12:28:57;;;;;;;16.88;9.38;;;;;;;0.90;84.19;100802.09;4933723;29;20252;-83